Time;durP1;ratioP1;P1;durP2;ratioP2;P2;SDS_P1;SDS_P2;PMS_P1;PMS_P2;Temp;Humidity;BMP_temperature;BMP_pressure;BME280_temperature;BME280_humidity;BME280_pressure;Samples;Min_cycle;Max_cycle;Signal;HPM_P1;HPM_P2
2021/04/15 00:00:33;;;;;;;36.83;21.15;;;11.20;70.00;;;;;;5077294;28;20371;-80
2021/04/15 00:03:07;;;;;;;32.35;18.88;;;11.20;70.10;;;;;;5073420;28;20059;-79
2021/04/15 00:05:33;;;;;;;32.10;18.95;;;11.20;70.00;;;;;;5075731;28;20482;-78
2021/04/15 00:07:59;;;;;;;30.33;19.20;;;11.20;70.00;;;;;;5076529;28;20098;-78
2021/04/15 00:10:32;;;;;;;29.50;18.67;;;11.20;70.10;;;;;;5076298;28;20020;-79
2021/04/15 00:12:58;;;;;;;35.05;19.95;;;11.20;70.10;;;;;;5076870;28;20025;-79
2021/04/15 00:15:24;;;;;;;34.30;20.08;;;11.30;70.10;;;;;;5076604;28;20028;-79
2021/04/15 00:17:50;;;;;;;34.55;19.85;;;11.30;70.10;;;;;;5077030;28;20420;-79
2021/04/15 00:20:16;;;;;;;36.25;22.60;;;11.40;70.10;;;;;;5076155;28;20045;-78
2021/04/15 00:22:41;;;;;;;40.83;25.38;;;11.40;70.20;;;;;;5076763;28;20031;-78
2021/04/15 00:25:08;;;;;;;39.78;24.70;;;11.40;70.40;;;;;;5076199;28;20078;-79
2021/04/15 00:27:34;;;;;;;39.70;24.58;;;11.50;70.70;;;;;;5074796;28;20420;-79
2021/04/15 00:30:00;;;;;;;38.25;23.65;;;11.50;70.90;;;;;;5076087;28;20028;-79
2021/04/15 00:32:25;;;;;;;36.92;23.75;;;11.50;70.90;;;;;;5075792;28;20035;-79
2021/04/15 00:34:51;;;;;;;37.20;23.25;;;11.60;71.20;;;;;;5076807;28;20031;-79
2021/04/15 00:37:17;;;;;;;34.78;23.75;;;11.60;71.30;;;;;;5076336;28;20081;-79
2021/04/15 00:39:43;;;;;;;35.13;22.88;;;11.60;71.40;;;;;;5076277;28;20060;-79
2021/04/15 00:42:09;;;;;;;35.83;22.92;;;11.50;71.60;;;;;;5076493;28;20411;-80
2021/04/15 00:44:35;;;;;;;37.40;22.65;;;11.50;71.70;;;;;;5076510;28;20059;-79
2021/04/15 00:47:04;;;;;;;41.58;23.75;;;11.60;71.90;;;;;;5076536;28;20029;-79
2021/04/15 00:49:41;;;;;;;42.13;22.90;;;11.60;71.90;;;;;;5076121;28;20111;-79
2021/04/15 00:52:19;;;;;;;40.88;23.60;;;11.50;71.90;;;;;;5074477;28;20127;-78
2021/04/15 00:54:51;;;;;;;39.03;24.02;;;11.60;72.10;;;;;;5076279;28;20029;-79
2021/04/15 00:57:32;;;;;;;44.33;24.08;;;11.50;72.00;;;;;;5079707;28;20359;-79
2021/04/15 00:59:58;;;;;;;37.97;21.95;;;11.50;72.20;;;;;;5077708;28;20024;-79
2021/04/15 01:02:24;;;;;;;41.30;24.98;;;11.50;72.20;;;;;;5075804;28;20085;-79
2021/04/15 01:04:57;;;;;;;40.55;23.35;;;11.50;72.30;;;;;;5075770;28;20113;-79
2021/04/15 01:07:23;;;;;;;43.25;24.98;;;11.40;72.50;;;;;;5075203;28;20035;-79
2021/04/15 01:09:51;;;;;;;42.83;25.85;;;11.40;72.50;;;;;;5075775;28;20028;-79
2021/04/15 01:12:23;;;;;;;45.55;26.88;;;11.40;72.70;;;;;;5075357;28;20418;-79
2021/04/15 01:15:13;;;;;;;52.45;28.88;;;11.40;73.00;;;;;;5076341;28;20033;-79
2021/04/15 01:17:57;;;;;;;50.25;27.67;;;11.30;73.10;;;;;;5075786;28;20060;-79
2021/04/15 01:20:26;;;;;;;48.55;28.10;;;11.20;73.30;;;;;;5074186;28;20053;-78
2021/04/15 01:22:56;;;;;;;46.95;27.48;;;11.20;73.30;;;;;;5076258;28;20477;-79
2021/04/15 01:25:50;;;;;;;52.47;28.35;;;11.20;73.50;;;;;;5075863;28;20032;-79
2021/04/15 01:28:21;;;;;;;53.50;28.95;;;11.10;73.70;;;;;;5075929;28;20024;-79
2021/04/15 01:31:21;;;;;;;50.97;28.67;;;11.10;73.80;;;;;;5075812;28;20107;-79
2021/04/15 01:34:05;;;;;;;52.42;30.88;;;11.10;74.00;;;;;;5074922;28;20433;-81
2021/04/15 01:36:43;;;;;;;53.05;28.58;;;11.10;74.10;;;;;;5073184;28;20459;-79
2021/04/15 01:39:25;;;;;;;53.83;30.17;;;11.10;74.30;;;;;;5075141;28;20039;-79
2021/04/15 01:41:57;;;;;;;56.67;30.98;;;11.10;74.50;;;;;;5074880;28;20536;-78
2021/04/15 01:44:29;;;;;;;52.75;29.50;;;11.10;74.50;;;;;;5074663;28;20386;-78
2021/04/15 01:47:01;;;;;;;54.72;29.52;;;11.10;74.60;;;;;;5074894;28;20048;-80
2021/04/15 01:49:30;;;;;;;54.92;30.67;;;11.10;74.70;;;;;;5074985;28;20210;-78
2021/04/15 01:51:56;;;;;;;52.15;30.67;;;11.10;74.80;;;;;;5073654;28;20028;-79
2021/04/15 01:54:30;;;;;;;55.10;29.35;;;11.10;74.80;;;;;;5074718;28;20028;-79
2021/04/15 01:57:02;;;;;;;51.75;27.77;;;11.10;74.90;;;;;;5075012;28;20028;-79
2021/04/15 02:00:00;;;;;;;53.17;28.90;;;11.20;74.90;;;;;;5075126;28;20028;-79
2021/04/15 02:02:30;;;;;;;52.63;29.23;;;11.20;74.80;;;;;;5073481;28;20178;-78
2021/04/15 02:05:21;;;;;;;57.38;29.27;;;11.10;74.80;;;;;;5074664;28;20025;-78
2021/04/15 02:08:00;;;;;;;57.53;29.63;;;11.20;74.80;;;;;;5074368;28;20033;-78
2021/04/15 02:10:27;;;;;;;57.03;29.58;;;11.20;74.80;;;;;;5074068;28;20020;-78
2021/04/15 02:12:56;;;;;;;50.50;27.45;;;11.20;74.70;;;;;;5074499;28;20043;-80
2021/04/15 02:15:29;;;;;;;46.42;27.55;;;11.20;74.70;;;;;;5074850;28;20082;-79
2021/04/15 02:18:08;;;;;;;45.40;25.13;;;11.20;74.70;;;;;;5074642;28;20025;-79
2021/04/15 02:20:34;;;;;;;47.15;25.73;;;11.20;74.60;;;;;;5074119;28;20053;-79
2021/04/15 02:23:29;;;;;;;45.22;25.92;;;11.20;74.50;;;;;;5074166;28;20394;-79
2021/04/15 02:26:10;;;;;;;48.15;25.60;;;11.30;74.50;;;;;;5074431;28;20016;-79
2021/04/15 02:28:53;;;;;;;47.20;25.27;;;11.20;74.10;;;;;;5074246;28;20067;-79
2021/04/15 02:31:48;;;;;;;38.33;23.77;;;11.20;74.00;;;;;;5074113;28;20086;-79
2021/04/15 02:34:25;;;;;;;44.40;25.35;;;11.20;73.90;;;;;;5068969;28;20067;-79
2021/04/15 02:36:51;;;;;;;42.13;24.02;;;11.20;73.80;;;;;;5074042;28;20037;-78
2021/04/15 02:39:23;;;;;;;46.28;24.48;;;11.20;73.90;;;;;;5074197;28;20028;-78
2021/04/15 02:41:50;;;;;;;51.13;25.55;;;11.10;74.00;;;;;;5074173;28;20394;-79
2021/04/15 02:44:25;;;;;;;48.22;24.80;;;11.10;73.90;;;;;;5074443;28;20082;-79
2021/04/15 02:47:40;;;;;;;40.95;24.42;;;11.10;73.90;;;;;;5074405;28;20120;-80
2021/04/15 02:50:13;;;;;;;45.58;24.58;;;11.10;74.00;;;;;;5063473;28;20037;-78
2021/04/15 02:52:46;;;;;;;42.97;24.65;;;11.10;74.00;;;;;;5073250;28;20034;-78
2021/04/15 02:55:21;;;;;;;41.83;23.73;;;11.00;73.90;;;;;;5072848;28;20032;-79
2021/04/15 02:57:54;;;;;;;40.60;23.13;;;11.00;74.00;;;;;;5074394;28;20027;-78
2021/04/15 03:00:24;;;;;;;47.20;25.30;;;11.00;74.10;;;;;;5073682;28;20367;-80
2021/04/15 03:03:02;;;;;;;44.63;25.02;;;11.00;74.10;;;;;;5073984;28;20119;-79
2021/04/15 03:05:31;;;;;;;44.60;24.88;;;11.00;74.20;;;;;;5073751;28;20060;-79
2021/04/15 03:07:58;;;;;;;45.30;24.25;;;11.00;74.30;;;;;;5074352;28;20055;-79
2021/04/15 03:10:29;;;;;;;41.95;23.60;;;11.10;74.50;;;;;;5074137;28;20028;-79
2021/04/15 03:13:35;;;;;;;45.08;24.05;;;11.10;74.50;;;;;;5073166;28;20029;-79
2021/04/15 03:16:04;;;;;;;47.80;24.48;;;11.10;74.40;;;;;;5068859;28;20055;-79
2021/04/15 03:18:38;;;;;;;43.88;25.40;;;11.20;74.30;;;;;;5073628;28;20024;-79
2021/04/15 03:21:24;;;;;;;44.15;23.52;;;11.20;74.20;;;;;;5073938;28;20021;-79
2021/04/15 03:24:25;;;;;;;46.55;25.27;;;11.20;74.20;;;;;;5073607;28;20124;-79
2021/04/15 03:27:15;;;;;;;44.78;23.65;;;11.30;74.10;;;;;;5073457;28;20024;-78
2021/04/15 03:30:04;;;;;;;39.45;23.85;;;11.30;74.00;;;;;;5076671;28;20039;-78
2021/04/15 03:32:55;;;;;;;45.97;24.85;;;11.40;73.90;;;;;;5073431;28;20032;-79
2021/04/15 03:35:41;;;;;;;39.13;23.55;;;11.30;73.70;;;;;;5073422;28;20538;-79
2021/04/15 03:38:21;;;;;;;50.53;25.48;;;11.40;73.70;;;;;;5073311;28;20039;-80
2021/04/15 03:40:56;;;;;;;41.72;23.83;;;11.40;73.80;;;;;;5072622;28;20409;-79
2021/04/15 03:43:27;;;;;;;42.45;25.00;;;11.50;73.80;;;;;;5073327;28;20040;-79
2021/04/15 03:46:23;;;;;;;42.00;23.27;;;11.50;73.80;;;;;;5073165;28;20383;-79
2021/04/15 03:48:53;;;;;;;42.42;23.08;;;11.60;73.70;;;;;;5063392;28;20485;-80
2021/04/15 03:51:25;;;;;;;39.80;22.90;;;11.70;73.60;;;;;;5073106;28;20029;-80
2021/04/15 03:54:00;;;;;;;44.10;22.77;;;11.70;73.40;;;;;;5072933;28;20028;-79
2021/04/15 03:56:31;;;;;;;39.00;23.85;;;11.80;73.30;;;;;;5073068;28;20024;-79
2021/04/15 03:59:13;;;;;;;42.25;23.42;;;11.80;73.00;;;;;;5075840;28;20081;-79
2021/04/15 04:01:44;;;;;;;42.58;22.30;;;11.90;72.90;;;;;;5075051;28;20418;-79
2021/04/15 04:04:24;;;;;;;41.60;22.98;;;12.00;72.80;;;;;;5077078;28;20020;-80
2021/04/15 04:06:50;;;;;;;34.13;20.48;;;12.00;72.40;;;;;;5076677;28;20029;-79
2021/04/15 04:09:31;;;;;;;37.22;22.52;;;12.00;72.00;;;;;;5076830;28;20389;-79
2021/04/15 04:12:01;;;;;;;36.15;20.70;;;12.00;72.00;;;;;;5077560;28;20040;-79
2021/04/15 04:14:41;;;;;;;37.25;20.65;;;11.90;71.90;;;;;;5077074;28;20111;-79
2021/04/15 04:17:15;;;;;;;36.78;20.95;;;11.90;71.80;;;;;;5076936;28;20082;-80
2021/04/15 04:19:53;;;;;;;35.75;20.15;;;11.80;71.80;;;;;;5076875;28;20123;-78
2021/04/15 04:22:38;;;;;;;38.65;20.90;;;11.80;72.00;;;;;;5076897;28;20115;-80
2021/04/15 04:25:10;;;;;;;;;;;11.80;72.10;;;;;;5077618;28;20417;-79
2021/04/15 04:27:47;;;;;;;39.42;21.20;;;11.80;72.10;;;;;;5076992;28;19912;-81
2021/04/15 04:30:48;;;;;;;36.10;21.42;;;11.80;72.20;;;;;;5083424;28;20024;-79
2021/04/15 04:33:17;;;;;;;37.83;21.75;;;11.80;72.20;;;;;;5092137;28;20035;-80
2021/04/15 04:35:46;;;;;;;36.45;20.63;;;11.90;72.30;;;;;;5076787;28;20125;-80
2021/04/15 04:38:15;;;;;;;33.65;20.65;;;12.00;72.20;;;;;;5076666;28;20017;-79
2021/04/15 04:40:43;;;;;;;37.47;19.88;;;12.10;71.90;;;;;;5075620;28;20111;-80
2021/04/15 04:43:19;;;;;;;33.22;19.88;;;12.10;71.70;;;;;;5084923;28;20053;-80
2021/04/15 04:45:45;;;;;;;30.92;20.45;;;12.10;71.60;;;;;;5092031;28;20078;-80
2021/04/15 04:48:50;;;;;;;35.72;19.67;;;12.20;71.50;;;;;;5092518;28;20051;-80
2021/04/15 04:51:18;;;;;;;36.13;19.63;;;12.20;71.20;;;;;;5077535;28;20368;-80
2021/04/15 04:53:48;;;;;;;30.30;18.50;;;12.30;71.10;;;;;;5085149;28;20031;-78
2021/04/15 04:56:22;;;;;;;37.28;20.60;;;12.30;70.90;;;;;;5094726;28;20398;-79
2021/04/15 04:58:58;;;;;;;42.40;21.63;;;12.30;70.80;;;;;;5094521;28;20131;-78
2021/04/15 05:01:24;;;;;;;40.03;21.25;;;12.40;70.80;;;;;;5093119;28;20033;-79
2021/04/15 05:03:59;;;;;;;39.30;22.13;;;12.40;70.60;;;;;;5094983;28;20087;-79
2021/04/15 05:06:28;;;;;;;43.42;22.70;;;12.40;70.40;;;;;;5095481;28;20073;-79
2021/04/15 05:09:21;;;;;;;37.85;21.67;;;12.40;70.30;;;;;;5093739;28;20032;-79
2021/04/15 05:11:49;;;;;;;44.70;24.35;;;12.40;70.10;;;;;;5094017;28;20030;-79
2021/04/15 05:14:18;;;;;;;50.42;27.48;;;12.40;70.20;;;;;;5093026;28;20048;-79
2021/04/15 05:16:49;;;;;;;59.17;34.42;;;12.40;70.40;;;;;;5083716;28;20090;-79
2021/04/15 05:19:16;;;;;;;56.65;34.33;;;12.50;71.00;;;;;;5075099;28;20063;-79
2021/04/15 05:21:43;;;;;;;54.88;32.00;;;12.60;71.10;;;;;;5075064;28;20041;-80
2021/04/15 05:24:16;;;;;;;54.70;32.15;;;12.70;71.20;;;;;;5074895;28;20463;-80
2021/04/15 05:26:44;;;;;;;49.72;30.42;;;12.90;71.10;;;;;;5074764;28;20041;-78
2021/04/15 05:29:24;;;;;;;49.30;29.67;;;13.00;70.70;;;;;;5074660;28;20016;-79
2021/04/15 05:31:53;;;;;;;54.08;28.60;;;13.10;70.40;;;;;;5071228;28;20032;-81
2021/04/15 05:34:32;;;;;;;55.70;28.48;;;13.20;70.10;;;;;;5074814;28;20031;-80
2021/04/15 05:37:08;;;;;;;56.60;31.15;;;13.30;69.70;;;;;;5074716;28;20074;-79
2021/04/15 05:39:36;;;;;;;53.25;30.23;;;13.30;69.20;;;;;;5074560;28;20063;-80
2021/04/15 05:42:28;;;;;;;53.55;30.02;;;13.30;69.00;;;;;;5074365;28;20036;-79
2021/04/15 05:45:05;;;;;;;54.83;30.77;;;13.30;69.10;;;;;;5073991;28;20028;-79
2021/04/15 05:47:48;;;;;;;56.67;30.17;;;13.40;69.10;;;;;;5074099;28;20027;-79
2021/04/15 05:50:20;;;;;;;52.63;29.88;;;13.40;68.90;;;;;;5074542;28;20370;-80
2021/04/15 05:52:53;;;;;;;57.05;27.83;;;13.40;68.70;;;;;;5073252;28;20068;-80
2021/04/15 05:55:27;;;;;;;52.28;30.33;;;13.40;68.60;;;;;;5074091;28;20043;-80
2021/04/15 05:58:00;;;;;;;54.70;27.83;;;13.40;68.50;;;;;;5074884;28;20027;-80
2021/04/15 06:00:43;;;;;;;47.38;25.83;;;13.30;68.60;;;;;;5078560;28;20493;-79
2021/04/15 06:03:13;;;;;;;47.08;25.73;;;13.30;68.70;;;;;;5073906;28;20036;-80
2021/04/15 06:05:58;;;;;;;46.97;23.38;;;13.30;68.60;;;;;;5074028;28;20037;-79
2021/04/15 06:08:27;;;;;;;37.38;22.63;;;13.30;68.60;;;;;;5074384;28;20089;-79
2021/04/15 06:11:07;;;;;;;35.60;22.55;;;13.20;68.50;;;;;;5074090;28;20107;-80
2021/04/15 06:13:43;;;;;;;37.17;21.88;;;13.20;68.80;;;;;;5074006;28;20047;-79
2021/04/15 06:16:17;;;;;;;38.38;22.67;;;13.30;69.00;;;;;;5074477;28;20031;-80
2021/04/15 06:18:46;;;;;;;35.35;20.23;;;13.30;69.00;;;;;;5074117;28;20209;-79
2021/04/15 06:21:26;;;;;;;31.15;20.20;;;13.40;68.80;;;;;;5073904;28;20028;-79
2021/04/15 06:24:10;;;;;;;39.10;21.08;;;13.50;68.40;;;;;;5073551;28;20035;-79
2021/04/15 06:26:46;;;;;;;38.05;19.73;;;13.60;68.40;;;;;;5074088;28;20056;-80
2021/04/15 06:29:17;;;;;;;27.20;17.85;;;13.70;68.20;;;;;;5074183;28;20021;-80
2021/04/15 06:31:46;;;;;;;33.17;18.95;;;13.80;67.70;;;;;;5074384;28;20036;-80
2021/04/15 06:34:13;;;;;;;32.88;19.42;;;13.80;67.60;;;;;;5074429;28;20481;-80
2021/04/15 06:37:10;;;;;;;30.77;19.77;;;13.90;67.40;;;;;;5073734;28;20438;-80
2021/04/15 06:39:38;;;;;;;36.38;19.67;;;14.00;67.20;;;;;;5073827;28;20032;-78
2021/04/15 06:42:18;;;;;;;32.60;18.95;;;14.20;67.00;;;;;;5073470;28;20028;-81
2021/04/15 06:44:50;;;;;;;31.73;20.63;;;14.40;66.90;;;;;;5074109;28;20021;-79
2021/04/15 06:47:28;;;;;;;39.75;21.63;;;14.60;66.50;;;;;;5073926;28;20048;-80
2021/04/15 06:50:05;;;;;;;38.83;21.60;;;14.90;65.90;;;;;;5072021;28;20059;-79
2021/04/15 06:52:51;;;;;;;35.70;20.90;;;15.10;65.30;;;;;;5073696;28;20036;-79
2021/04/15 06:55:55;;;;;;;34.45;20.58;;;15.40;64.50;;;;;;5073562;28;20073;-80
2021/04/15 06:58:21;;;;;;;30.77;21.02;;;15.60;63.80;;;;;;5073354;28;20393;-80
2021/04/15 07:01:15;;;;;;;33.95;19.60;;;15.80;63.50;;;;;;5073835;28;20036;-80
2021/04/15 07:04:11;;;;;;;32.33;18.75;;;15.80;62.50;;;;;;5073481;28;20386;-80
2021/04/15 07:06:47;;;;;;;67.78;21.80;;;15.90;61.90;;;;;;5071979;28;20396;-80
2021/04/15 07:09:40;;;;;;;56.40;20.95;;;16.10;62.00;;;;;;5069616;28;20434;-81
2021/04/15 07:12:24;;;;;;;32.55;16.77;;;16.20;61.50;;;;;;5071053;28;20036;-79
2021/04/15 07:15:28;;;;;;;56.88;20.92;;;16.40;60.80;;;;;;5068969;28;20074;-80
2021/04/15 07:18:13;;;;;;;53.25;18.67;;;16.50;60.60;;;;;;5069242;28;20052;-80
2021/04/15 07:21:03;;;;;;;49.53;19.08;;;16.60;60.40;;;;;;5066806;28;20052;-79
2021/04/15 07:23:50;;;;;;;93.65;22.83;;;16.70;60.00;;;;;;5071914;28;20035;-80
2021/04/15 07:26:28;;;;;;;44.53;18.25;;;16.80;59.70;;;;;;5069884;28;20030;-80
2021/04/15 07:29:26;;;;;;;28.30;17.40;;;17.00;59.40;;;;;;5069101;28;20027;-80
2021/04/15 07:31:58;;;;;;;29.75;18.80;;;17.10;59.00;;;;;;5069148;28;20036;-81
2021/04/15 07:34:33;;;;;;;27.02;17.40;;;17.30;58.90;;;;;;5072439;28;20079;-80
2021/04/15 07:37:17;;;;;;;44.28;19.05;;;17.50;58.40;;;;;;5072359;28;20394;-80
2021/04/15 07:40:05;;;;;;;50.47;19.80;;;17.70;58.20;;;;;;5074333;28;20028;-79
2021/04/15 07:42:55;;;;;;;62.20;20.15;;;18.00;57.60;;;;;;5074348;28;20378;-81
2021/04/15 07:45:29;;;;;;;56.80;20.35;;;18.30;56.90;;;;;;5074945;28;20021;-80
2021/04/15 07:48:39;;;;;;;57.63;21.40;;;18.50;56.20;;;;;;5076352;28;20070;-80
2021/04/15 07:51:38;;;;;;;36.90;20.88;;;18.60;55.70;;;;;;5075991;28;20043;-79
2021/04/15 07:54:24;;;;;;;52.42;19.83;;;18.70;55.30;;;;;;5075941;28;20024;-80
2021/04/15 07:57:30;;;;;;;26.52;18.13;;;18.90;55.10;;;;;;5074461;28;20112;-80
2021/04/15 08:00:34;;;;;;;25.85;17.27;;;19.00;54.80;;;;;;5073944;28;20190;-81
2021/04/15 08:03:32;;;;;;;25.23;16.23;;;19.20;54.30;;;;;;5073334;28;20104;-82
2021/04/15 08:06:33;;;;;;;25.45;17.17;;;19.30;54.20;;;;;;5074352;28;20040;-80
2021/04/15 08:09:36;;;;;;;20.20;13.95;;;19.30;54.00;;;;;;5074676;28;20056;-80
2021/04/15 08:12:33;;;;;;;23.58;14.32;;;19.40;53.60;;;;;;5075820;28;20527;-80
2021/04/15 08:15:17;;;;;;;23.17;11.23;;;19.50;53.30;;;;;;5075917;28;20505;-81
2021/04/15 08:18:17;;;;;;;58.95;14.75;;;19.60;52.50;;;;;;5075753;28;20555;-80
2021/04/15 08:21:23;;;;;;;35.20;10.15;;;19.80;52.30;;;;;;5075808;28;20059;-80
2021/04/15 08:24:25;;;;;;;36.38;9.48;;;19.90;51.40;;;;;;5075199;28;20387;-79
2021/04/15 08:27:25;;;;;;;33.20;8.65;;;20.10;50.70;;;;;;5076235;28;20081;-80
2021/04/15 08:30:22;;;;;;;49.88;12.40;;;20.30;50.20;;;;;;5077165;28;20025;-81
2021/04/15 08:33:23;;;;;;;16.00;8.63;;;20.70;49.80;;;;;;5075378;28;20374;-80
2021/04/15 08:36:19;;;;;;;14.25;9.15;;;21.00;49.00;;;;;;5072362;28;20106;-79
2021/04/15 08:38:55;;;;;;;24.85;8.48;;;21.40;48.60;;;;;;5074459;28;20021;-80
2021/04/15 08:41:27;;;;;;;19.98;8.02;;;22.00;48.50;;;;;;5074022;28;20095;-81
2021/04/15 08:44:09;;;;;;;38.83;8.80;;;22.50;48.20;;;;;;5074131;28;20031;-80
2021/04/15 08:46:38;;;;;;;50.33;9.10;;;23.20;47.00;;;;;;5071815;28;20017;-80
2021/04/15 08:49:52;;;;;;;40.03;8.73;;;24.00;46.50;;;;;;5073330;28;20020;-81
2021/04/15 08:52:40;;;;;;;28.83;10.57;;;24.70;45.00;;;;;;5069322;28;20432;-79
2021/04/15 08:55:41;;;;;;;25.15;9.05;;;25.20;44.00;;;;;;5071424;28;20044;-80
2021/04/15 08:58:44;;;;;;;7.78;6.45;;;25.70;43.30;;;;;;5072375;28;20111;-80
2021/04/15 09:01:19;;;;;;;8.68;6.68;;;26.30;42.40;;;;;;5073413;28;20039;-78
2021/04/15 09:04:00;;;;;;;10.18;6.18;;;26.70;41.20;;;;;;5074529;28;20074;-80
2021/04/15 09:06:44;;;;;;;11.75;7.35;;;27.00;40.30;;;;;;5073269;28;20024;-79
2021/04/15 09:09:20;;;;;;;11.95;6.40;;;27.10;39.90;;;;;;5074628;28;20039;-80
2021/04/15 09:11:48;;;;;;;12.25;7.40;;;27.80;39.80;;;;;;5074804;28;20040;-80
2021/04/15 09:14:42;;;;;;;10.05;6.78;;;28.30;39.00;;;;;;5074709;28;20028;-80
2021/04/15 09:17:15;;;;;;;7.75;5.53;;;28.50;38.30;;;;;;5074570;28;20031;-80
2021/04/15 09:19:59;;;;;;;8.93;4.95;;;28.80;38.00;;;;;;5074995;28;20558;-80
2021/04/15 09:22:44;;;;;;;8.63;5.38;;;28.40;37.20;;;;;;5072105;28;20068;-80
2021/04/15 09:25:20;;;;;;;29.67;7.57;;;27.70;36.80;;;;;;5072887;28;20490;-80
2021/04/15 09:28:05;;;;;;;9.75;7.32;;;27.70;37.30;;;;;;5074542;28;20466;-79
2021/04/15 09:30:53;;;;;;;9.30;7.70;;;28.30;38.00;;;;;;5073781;28;20524;-79
2021/04/15 09:33:41;;;;;;;13.65;8.90;;;29.00;36.30;;;;;;5074344;28;20041;-82
2021/04/15 09:36:12;;;;;;;88.85;15.27;;;28.70;35.80;;;;;;5073393;28;20127;-80
2021/04/15 09:38:38;;;;;;;16.65;9.15;;;29.20;36.20;;;;;;5074569;28;20106;-80
2021/04/15 09:41:10;;;;;;;18.02;9.07;;;30.10;36.20;;;;;;5074063;28;20059;-80
2021/04/15 09:43:42;;;;;;;12.85;8.00;;;31.00;35.30;;;;;;5074190;28;20028;-81
2021/04/15 09:46:29;;;;;;;18.35;7.97;;;31.70;34.80;;;;;;5074232;28;20033;-80
2021/04/15 09:49:03;;;;;;;9.95;7.60;;;32.40;34.00;;;;;;5073980;28;20422;-79
2021/04/15 09:51:37;;;;;;;;;;;32.80;33.60;;;;;;5070343;28;20020;-80
2021/04/15 09:54:06;;;;;;;29.52;8.93;;;32.70;34.50;;;;;;5074470;28;19908;-79
2021/04/15 09:56:56;;;;;;;9.30;7.35;;;32.50;33.40;;;;;;5074079;28;20036;-79
2021/04/15 09:59:51;;;;;;;14.65;9.05;;;32.40;32.70;;;;;;5061166;28;20103;-80
2021/04/15 10:02:43;;;;;;;14.15;8.80;;;32.30;32.80;;;;;;5074130;28;20040;-80
2021/04/15 10:05:17;;;;;;;16.98;9.65;;;32.00;32.40;;;;;;5073616;28;20025;-81
2021/04/15 10:07:49;;;;;;;10.93;9.63;;;31.70;32.60;;;;;;5075852;28;20378;-81
2021/04/15 10:10:47;;;;;;;11.38;8.15;;;31.40;32.60;;;;;;5071237;28;20070;-81
2021/04/15 10:13:13;;;;;;;9.18;7.68;;;30.70;32.40;;;;;;5073434;28;20028;-80
2021/04/15 10:15:48;;;;;;;10.88;8.30;;;29.40;32.60;;;;;;5073644;28;20381;-80
2021/04/15 10:18:36;;;;;;;11.13;7.93;;;27.90;33.40;;;;;;5074019;28;20028;-79
2021/04/15 10:21:31;;;;;;;12.13;8.30;;;26.30;34.30;;;;;;5073698;28;20031;-82
2021/04/15 10:24:13;;;;;;;12.57;9.27;;;25.00;36.00;;;;;;5073237;28;20455;-80
2021/04/15 10:27:15;;;;;;;11.70;9.02;;;24.10;37.30;;;;;;5073443;28;20474;-80
2021/04/15 10:30:03;;;;;;;12.82;9.15;;;23.60;38.00;;;;;;5073251;28;20482;-79
2021/04/15 10:32:31;;;;;;;12.60;8.65;;;23.20;38.70;;;;;;5073497;28;20048;-80
2021/04/15 10:35:02;;;;;;;12.15;9.40;;;22.60;39.40;;;;;;5073265;28;20074;-80
2021/04/15 10:37:40;;;;;;;12.68;9.85;;;22.50;40.20;;;;;;5073374;28;20107;-80
2021/04/15 10:40:24;;;;;;;20.40;9.85;;;22.70;40.60;;;;;;5073565;28;20035;-81
2021/04/15 10:43:26;;;;;;;22.35;9.82;;;23.50;40.10;;;;;;5072621;28;20032;-79
2021/04/15 10:45:55;;;;;;;12.30;8.18;;;23.90;39.30;;;;;;5071957;28;20398;-80
2021/04/15 10:48:23;;;;;;;13.20;7.07;;;23.70;38.90;;;;;;5072672;28;20028;-80
2021/04/15 10:51:11;;;;;;;15.43;7.32;;;23.30;39.00;;;;;;5072271;28;20025;-79
2021/04/15 10:53:56;;;;;;;11.40;8.95;;;22.80;39.10;;;;;;5071378;28;20423;-81
2021/04/15 10:56:27;;;;;;;20.10;11.07;;;22.30;39.90;;;;;;5070080;28;20025;-80
2021/04/15 10:59:09;;;;;;;12.43;9.45;;;21.90;40.60;;;;;;5076461;28;20519;-82
2021/04/15 11:01:40;;;;;;;16.83;9.43;;;21.80;41.10;;;;;;5075007;28;20028;-82
2021/04/15 11:04:09;;;;;;;14.32;9.43;;;21.70;41.40;;;;;;5071913;28;20069;-82
2021/04/15 11:06:39;;;;;;;10.20;8.60;;;21.60;41.70;;;;;;5072462;28;20382;-82
2021/04/15 11:09:20;;;;;;;12.80;9.18;;;21.50;41.70;;;;;;5070504;28;20024;-81
2021/04/15 11:11:53;;;;;;;17.17;9.90;;;21.30;42.30;;;;;;5074303;28;20051;-80
2021/04/15 11:14:19;;;;;;;14.30;10.07;;;21.60;42.70;;;;;;5077652;28;20032;-81
2021/04/15 11:16:54;;;;;;;12.57;9.73;;;22.00;42.80;;;;;;5076345;28;20762;-80
2021/04/15 11:19:25;;;;;;;14.35;10.52;;;22.60;42.40;;;;;;5077648;28;20506;-81
2021/04/15 11:21:54;;;;;;;12.93;9.48;;;23.20;41.70;;;;;;5077034;28;20115;-80
2021/04/15 11:24:23;;;;;;;13.27;8.68;;;23.50;41.00;;;;;;5077015;28;20033;-80
2021/04/15 11:26:50;;;;;;;9.85;8.32;;;23.50;40.40;;;;;;5075581;28;20024;-80
2021/04/15 11:29:24;;;;;;;13.80;8.75;;;23.40;40.20;;;;;;5077129;28;20025;-80
2021/04/15 11:31:50;;;;;;;17.95;9.13;;;23.10;40.20;;;;;;5076116;28;20032;-79
2021/04/15 11:34:27;;;;;;;14.65;8.50;;;22.90;40.60;;;;;;5076913;28;20024;-80
2021/04/15 11:37:08;;;;;;;18.05;9.85;;;22.40;40.80;;;;;;5070965;28;20117;-79
2021/04/15 11:39:36;;;;;;;13.98;9.85;;;22.10;41.30;;;;;;5056736;28;20021;-80
2021/04/15 11:42:08;;;;;;;15.35;11.77;;;21.60;42.00;;;;;;5083458;28;20028;-80
2021/04/15 11:44:54;;;;;;;16.05;10.95;;;21.30;42.60;;;;;;5075778;28;20391;-81
2021/04/15 11:47:23;;;;;;;16.10;11.00;;;21.00;43.10;;;;;;5075483;28;20100;-82
2021/04/15 11:49:51;;;;;;;14.68;10.60;;;20.80;43.70;;;;;;5075255;28;20033;-80
2021/04/15 11:52:19;;;;;;;23.75;10.82;;;20.60;44.20;;;;;;5075910;28;20037;-80
2021/04/15 11:54:51;;;;;;;17.33;9.10;;;20.50;44.60;;;;;;5076124;28;20036;-77
2021/04/15 11:57:19;;;;;;;19.63;9.50;;;20.40;44.70;;;;;;5075665;28;20385;-74
2021/04/15 12:00:00;;;;;;;13.13;9.52;;;20.40;45.00;;;;;;5075861;28;20338;-74
2021/04/15 12:02:33;;;;;;;16.33;9.82;;;20.50;45.10;;;;;;5075749;28;20042;-73
2021/04/15 12:05:19;;;;;;;18.92;10.05;;;20.60;45.10;;;;;;5075341;28;20083;-73
2021/04/15 12:08:30;;;;;;;36.55;11.98;;;20.70;45.00;;;;;;5075565;28;20055;-73
2021/04/15 12:11:13;;;;;;;23.50;9.77;;;20.90;44.90;;;;;;5075692;28;20021;-74
2021/04/15 12:13:49;;;;;;;21.30;9.20;;;21.40;44.70;;;;;;5075543;28;20037;-76
2021/04/15 12:16:50;;;;;;;23.35;11.55;;;21.80;44.10;;;;;;5075572;28;20039;-74
2021/04/15 12:19:43;;;;;;;17.00;9.80;;;22.30;43.60;;;;;;5054573;28;20053;-74
2021/04/15 12:22:32;;;;;;;21.35;10.13;;;22.90;43.00;;;;;;5053699;28;20032;-74
2021/04/15 12:25:04;;;;;;;26.13;10.00;;;23.40;42.50;;;;;;5053977;28;20108;-73
2021/04/15 12:27:33;;;;;;;20.52;10.10;;;23.70;41.80;;;;;;5054564;28;20486;-83
2021/04/15 12:30:20;;;;;;;36.90;11.80;;;23.80;41.50;;;;;;5054366;28;20033;-83
2021/04/15 12:33:18;;;;;;;19.05;10.70;;;24.00;41.10;;;;;;5055502;28;20029;-82
2021/04/15 12:35:51;;;;;;;32.05;10.88;;;24.30;40.80;;;;;;5055545;28;20041;-83
2021/04/15 12:38:27;;;;;;;18.55;8.85;;;24.80;40.40;;;;;;5054423;28;20024;-82
2021/04/15 12:40:59;;;;;;;21.58;10.40;;;25.30;40.00;;;;;;5055779;28;20044;-83
2021/04/15 12:43:46;;;;;;;34.00;11.85;;;25.80;39.30;;;;;;5055690;28;20036;-82
2021/04/15 12:46:26;;;;;;;38.10;8.57;;;26.20;38.60;;;;;;5055769;28;20485;-83
2021/04/15 12:48:59;;;;;;;29.70;8.23;;;26.40;38.10;;;;;;5055436;28;20017;-83
2021/04/15 12:51:28;;;;;;;25.20;8.70;;;26.40;37.80;;;;;;5055516;28;20048;-85
2021/04/15 12:53:57;;;;;;;15.52;7.43;;;26.50;37.70;;;;;;5065695;28;20117;-83
2021/04/15 12:56:39;;;;;;;22.95;8.75;;;26.60;37.60;;;;;;5075591;28;20021;-82
2021/04/15 12:59:05;;;;;;;21.15;8.18;;;26.90;37.50;;;;;;5075224;28;20059;-84
2021/04/15 13:01:38;;;;;;;23.90;12.00;;;27.30;37.40;;;;;;5073920;28;20021;-83
2021/04/15 13:04:17;;;;;;;20.48;10.60;;;27.80;37.00;;;;;;5074945;28;20024;-83
2021/04/15 13:07:01;;;;;;;20.83;10.20;;;28.20;36.40;;;;;;5075785;28;20028;-84
2021/04/15 13:09:31;;;;;;;;;;;28.70;36.00;;;;;;5075487;28;20029;-84
2021/04/15 13:11:57;;;;;;;188.13;26.42;;;29.10;36.80;;;;;;5074880;28;19965;-82
2021/04/15 13:14:42;;;;;;;60.58;16.58;;;29.50;35.90;;;;;;5074982;28;20028;-84
2021/04/15 13:17:11;;;;;;;24.05;14.35;;;29.80;35.00;;;;;;5074759;28;20111;-83
2021/04/15 13:19:51;;;;;;;22.75;14.88;;;30.00;34.90;;;;;;5074988;28;20056;-84
2021/04/15 13:22:17;;;;;;;24.83;15.43;;;30.30;34.50;;;;;;5074714;28;20035;-83
2021/04/15 13:24:49;;;;;;;24.38;14.40;;;30.70;34.50;;;;;;5074782;28;20020;-84
2021/04/15 13:27:35;;;;;;;21.15;13.82;;;31.10;33.90;;;;;;5074897;28;20074;-83